createdAt,value
2022-10-30T00:02:09.036Z,96767.91
2022-10-30T00:04:36.632Z,96772.44
2022-10-30T00:07:05.517Z,96780.00
2022-10-30T00:09:33.058Z,96768.34
2022-10-30T00:12:01.035Z,96769.94
2022-10-30T00:14:28.568Z,96773.91
2022-10-30T00:16:56.085Z,96769.00
2022-10-30T00:19:23.711Z,96759.88
2022-10-30T00:21:51.251Z,96764.84
2022-10-30T00:24:20.171Z,96768.72
2022-10-30T00:26:48.069Z,96770.09
2022-10-30T00:29:15.683Z,96765.41
2022-10-30T00:31:43.191Z,96766.31
2022-10-30T00:34:10.710Z,96768.81
2022-10-30T00:36:38.231Z,96771.69
2022-10-30T00:39:06.212Z,96762.16
2022-10-30T00:41:35.138Z,96768.00
2022-10-30T00:44:02.658Z,96756.72
2022-10-30T00:46:34.057Z,96750.63
2022-10-30T00:49:06.597Z,96751.66
2022-10-30T00:51:34.534Z,96756.72
2022-10-30T00:54:07.167Z,96752.84
2022-10-30T00:56:37.255Z,96749.28
2022-10-30T00:59:09.282Z,96749.19
2022-10-30T01:01:40.919Z,96747.16
2022-10-30T01:04:08.731Z,96746.03
2022-10-30T01:06:39.858Z,96749.44
2022-10-30T01:09:07.662Z,96740.59
2022-10-30T01:11:36.607Z,96742.53
2022-10-30T01:14:08.093Z,96737.00
2022-10-30T01:16:53.553Z,96732.47
2022-10-30T01:19:29.179Z,96730.44
2022-10-30T01:22:14.605Z,96722.56
2022-10-30T01:24:51.667Z,96724.34
2022-10-30T01:27:36.784Z,96722.84
2022-10-30T01:30:17.503Z,96719.53
2022-10-30T01:32:56.521Z,96723.22
2022-10-30T01:35:33.475Z,96716.50
2022-10-30T01:38:07.659Z,96709.69
2022-10-30T01:40:35.368Z,96714.38
2022-10-30T01:43:04.299Z,96717.13
2022-10-30T01:45:54.455Z,96716.66
2022-10-30T01:48:40.894Z,96716.38
2022-10-30T01:51:21.128Z,96715.47
2022-10-30T01:53:58.165Z,96716.03
2022-10-30T01:56:37.407Z,96717.16
2022-10-30T01:59:12.155Z,96712.69
2022-10-30T02:01:40.534Z,96713.44
2022-10-30T02:04:09.263Z,96717.22
2022-10-30T02:06:37.315Z,96717.41
2022-10-30T02:09:06.000Z,96713.91
2022-10-30T02:11:34.988Z,96710.88
2022-10-30T02:14:08.028Z,96716.41
2022-10-30T02:16:38.456Z,96715.47
2022-10-30T02:19:07.534Z,96717.16
2022-10-30T02:21:36.437Z,96715.13
2022-10-30T02:24:03.946Z,96716.13
2022-10-30T02:26:31.437Z,96710.31
2022-10-30T02:28:58.960Z,96709.03
2022-10-30T02:31:26.511Z,96710.13
2022-10-30T02:33:54.036Z,96707.81
2022-10-30T02:36:21.588Z,96707.00
2022-10-30T02:38:50.426Z,96708.28
2022-10-30T02:41:17.955Z,96701.72
2022-10-30T02:43:45.471Z,96704.94
2022-10-30T02:46:12.963Z,96700.59
2022-10-30T02:48:40.549Z,96712.03
2022-10-30T02:51:08.072Z,96716.19
2022-10-30T02:53:35.765Z,96707.84
2022-10-30T02:56:10.132Z,96702.72
2022-10-30T02:58:38.073Z,96703.00
2022-10-30T03:01:09.843Z,96702.53
2022-10-30T03:03:37.754Z,96708.19
2022-10-30T03:06:07.954Z,96707.34
2022-10-30T03:08:36.135Z,96703.66
2022-10-30T03:11:05.107Z,96702.38
2022-10-30T03:13:35.379Z,96705.50
2022-10-30T03:16:04.435Z,96701.25
2022-10-30T03:18:32.006Z,96702.53
2022-10-30T03:21:00.341Z,96699.69
2022-10-30T03:23:28.782Z,96689.88
2022-10-30T03:25:58.023Z,96690.41
2022-10-30T03:28:27.586Z,96694.53
2022-10-30T03:31:01.549Z,96689.75
2022-10-30T03:33:29.462Z,96698.50
2022-10-30T03:35:56.988Z,96687.53
2022-10-30T03:38:24.708Z,96690.50
2022-10-30T03:40:52.589Z,96694.19
2022-10-30T03:43:20.267Z,96690.44
2022-10-30T03:45:49.354Z,96695.03
2022-10-30T03:48:19.443Z,96705.38
2022-10-30T03:50:47.374Z,96692.78
2022-10-30T03:53:15.591Z,96693.94
2022-10-30T03:55:43.382Z,96693.75
2022-10-30T03:58:10.951Z,96696.94
2022-10-30T04:00:38.464Z,96698.81
2022-10-30T04:03:08.341Z,96693.28
2022-10-30T04:05:38.282Z,96701.50
2022-10-30T04:08:08.366Z,96696.31
2022-10-30T04:10:36.648Z,96696.69
2022-10-30T04:13:06.250Z,96697.41
2022-10-30T04:15:34.236Z,96697.22
2022-10-30T04:18:02.553Z,96697.38
2022-10-30T04:20:30.535Z,96700.81
2022-10-30T04:23:00.700Z,96688.25
2022-10-30T04:25:29.070Z,96694.91
2022-10-30T04:27:56.972Z,96699.59
2022-10-30T04:30:27.145Z,96701.06
2022-10-30T04:32:56.814Z,96691.34
2022-10-30T04:35:27.910Z,96692.97
2022-10-30T04:37:55.914Z,96687.81
2022-10-30T04:40:26.868Z,96682.19
2022-10-30T04:42:54.781Z,96691.56
2022-10-30T04:45:22.825Z,96686.34
2022-10-30T04:47:50.376Z,96687.16
2022-10-30T04:50:18.524Z,96675.91
2022-10-30T04:52:46.161Z,96682.44
2022-10-30T04:55:13.681Z,96688.19
2022-10-30T04:57:42.866Z,96681.91
2022-10-30T05:00:12.512Z,96674.56
2022-10-30T05:02:40.287Z,96675.22
2022-10-30T05:05:08.630Z,96678.88
2022-10-30T05:07:36.158Z,96673.06
2022-10-30T05:10:03.725Z,96675.78
2022-10-30T05:12:31.251Z,96676.59
2022-10-30T05:15:00.123Z,96679.00
2022-10-30T05:17:28.052Z,96672.41
2022-10-30T05:19:56.671Z,96676.44
2022-10-30T05:22:24.192Z,96673.19
2022-10-30T05:24:51.698Z,96661.13
2022-10-30T05:27:19.221Z,96657.88
2022-10-30T05:29:46.735Z,96662.22
2022-10-30T05:32:15.668Z,96663.84
2022-10-30T05:34:43.316Z,96662.44
2022-10-30T05:37:10.816Z,96665.00
2022-10-30T05:39:38.302Z,96666.63
2022-10-30T05:42:08.526Z,96667.09
2022-10-30T05:44:59.426Z,96659.44
2022-10-30T05:47:26.224Z,96665.53
2022-10-30T05:49:53.764Z,96661.13
2022-10-30T05:52:21.280Z,96667.75
2022-10-30T05:54:48.786Z,96664.91
2022-10-30T05:57:16.286Z,96674.22
2022-10-30T05:59:43.798Z,96677.59
2022-10-30T06:02:11.360Z,96672.91
2022-10-30T06:04:40.306Z,96675.84
2022-10-30T06:07:07.825Z,96677.75
2022-10-30T06:09:35.301Z,96670.22
2022-10-30T06:12:02.905Z,96675.84
2022-10-30T06:14:30.455Z,96681.75
2022-10-30T06:16:58.134Z,96674.44
2022-10-30T06:19:25.657Z,96685.13
2022-10-30T06:21:54.797Z,96681.47
2022-10-30T06:24:22.314Z,96679.28
2022-10-30T06:26:50.993Z,96684.97
2022-10-30T06:29:18.660Z,96687.16
2022-10-30T06:31:46.351Z,96683.44
2022-10-30T06:34:13.845Z,96688.59
2022-10-30T06:36:41.352Z,96686.34
2022-10-30T06:39:10.226Z,96692.75
2022-10-30T06:41:37.912Z,96691.44
2022-10-30T06:44:05.641Z,96684.34
2022-10-30T06:46:33.971Z,96691.06
2022-10-30T06:49:01.611Z,96686.38
2022-10-30T06:51:29.416Z,96693.47
2022-10-30T06:53:56.907Z,96695.72
2022-10-30T06:56:25.761Z,96692.41
2022-10-30T06:58:53.249Z,96695.53
2022-10-30T07:01:20.816Z,96698.09
2022-10-30T07:03:48.383Z,96695.13
2022-10-30T07:06:15.921Z,96699.06
2022-10-30T07:08:43.436Z,96704.75
2022-10-30T07:11:10.956Z,96703.19
2022-10-30T07:13:39.829Z,96706.06
2022-10-30T07:16:07.635Z,96701.38
2022-10-30T07:18:35.158Z,96702.84
2022-10-30T07:21:02.659Z,96700.91
2022-10-30T07:23:30.169Z,96704.88
2022-10-30T07:26:03.339Z,96702.59
2022-10-30T07:28:32.409Z,96706.31
2022-10-30T07:31:01.301Z,96712.69
2022-10-30T07:33:28.813Z,96707.22
2022-10-30T07:35:56.323Z,96709.34
2022-10-30T07:38:24.039Z,96705.91
2022-10-30T07:40:53.510Z,96714.31
2022-10-30T07:43:21.126Z,96703.09
2022-10-30T07:45:48.686Z,96703.97
2022-10-30T07:48:17.570Z,96703.91
2022-10-30T07:50:45.088Z,96709.84
2022-10-30T07:53:12.640Z,96708.63
2022-10-30T07:55:40.173Z,96706.41
2022-10-30T07:58:07.696Z,96707.88
2022-10-30T08:00:35.214Z,96709.41
2022-10-30T08:03:03.047Z,96703.13
2022-10-30T08:05:32.161Z,96707.88
2022-10-30T08:08:00.040Z,96712.91
2022-10-30T08:10:27.971Z,96703.94
2022-10-30T08:12:55.482Z,96706.97
2022-10-30T08:15:23.746Z,96695.19
2022-10-30T08:17:51.731Z,96702.81
2022-10-30T08:20:21.673Z,96702.56
2022-10-30T08:22:51.645Z,96703.06
2022-10-30T08:25:21.091Z,96698.06
2022-10-30T08:27:54.844Z,96704.00
2022-10-30T08:30:22.882Z,96704.59
2022-10-30T08:32:50.421Z,96700.00
2022-10-30T08:35:19.989Z,96695.94
2022-10-30T08:37:47.991Z,96689.63
2022-10-30T08:40:17.015Z,96694.63
2022-10-30T08:42:51.424Z,96691.56
2022-10-30T08:45:19.459Z,96690.91
2022-10-30T08:47:46.978Z,96690.91
2022-10-30T08:50:14.754Z,96696.41
2022-10-30T08:52:42.292Z,96699.09
2022-10-30T08:55:10.255Z,96692.63
2022-10-30T08:57:39.110Z,96698.50
2022-10-30T09:00:07.879Z,96691.66
2022-10-30T09:02:39.312Z,96689.56
2022-10-30T09:05:07.605Z,96690.09
2022-10-30T09:07:35.119Z,96685.63
2022-10-30T09:10:02.965Z,96686.41
2022-10-30T09:12:30.500Z,96684.03
2022-10-30T09:14:59.335Z,96680.53
2022-10-30T09:17:26.943Z,96685.03
2022-10-30T09:19:54.491Z,96690.50
2022-10-30T09:22:22.043Z,96679.53
2022-10-30T09:24:49.583Z,96684.09
2022-10-30T09:27:17.203Z,96688.25
2022-10-30T09:29:44.686Z,96692.50
2022-10-30T09:32:13.533Z,96697.22
2022-10-30T09:34:41.043Z,96690.28
2022-10-30T09:37:08.536Z,96698.88
2022-10-30T09:39:36.051Z,96692.28
2022-10-30T09:42:27.294Z,96690.59
2022-10-30T09:45:28.186Z,96696.34
2022-10-30T09:48:07.496Z,96698.78
2022-10-30T09:50:41.128Z,96684.94
2022-10-30T09:53:16.462Z,96687.19
2022-10-30T09:55:52.135Z,96681.06
2022-10-30T09:58:27.186Z,96683.88
2022-10-30T10:01:07.140Z,96679.28
2022-10-30T10:03:49.782Z,96685.03
2022-10-30T10:06:21.066Z,96680.03
2022-10-30T10:08:53.055Z,96678.50
2022-10-30T10:11:26.199Z,96680.44
2022-10-30T10:13:58.673Z,96675.50
2022-10-30T10:16:30.447Z,96675.72
2022-10-30T10:19:06.975Z,96679.22
2022-10-30T10:21:39.086Z,96677.34
2022-10-30T10:24:19.719Z,96671.56
2022-10-30T10:26:50.294Z,96680.69
2022-10-30T10:29:33.013Z,96684.72
2022-10-30T10:32:14.098Z,96681.59
2022-10-30T10:34:54.450Z,96685.13
2022-10-30T10:37:32.610Z,96682.88
2022-10-30T10:40:21.660Z,96682.81
2022-10-30T10:42:59.039Z,96681.56
2022-10-30T10:45:35.044Z,96677.13
2022-10-30T10:48:23.761Z,96670.59
2022-10-30T10:50:57.162Z,96669.53
2022-10-30T10:53:30.456Z,96666.00
2022-10-30T10:56:00.748Z,96671.31
2022-10-30T10:58:33.032Z,96665.06
2022-10-30T11:01:01.412Z,96662.25
2022-10-30T11:03:39.164Z,96663.88
2022-10-30T11:06:21.029Z,96665.97
2022-10-30T11:08:49.711Z,96646.09
2022-10-30T11:11:17.255Z,96652.97
2022-10-30T11:13:45.380Z,96650.16
2022-10-30T11:16:25.500Z,96648.84
2022-10-30T11:18:57.922Z,96655.91
2022-10-30T11:21:28.831Z,96646.59
2022-10-30T11:23:56.386Z,96649.44
2022-10-30T11:26:33.379Z,96643.97
2022-10-30T11:29:05.622Z,96642.13
2022-10-30T11:31:38.697Z,96639.50
2022-10-30T11:34:24.879Z,96636.44
2022-10-30T11:36:54.953Z,96643.59
2022-10-30T11:39:24.391Z,96643.22
2022-10-30T11:41:59.406Z,96637.94
2022-10-30T11:44:31.881Z,96631.88
2022-10-30T11:46:59.800Z,96635.44
2022-10-30T11:49:34.849Z,96631.31
2022-10-30T11:52:05.326Z,96631.63
2022-10-30T11:54:37.399Z,96630.81
2022-10-30T11:57:05.858Z,96625.81
2022-10-30T11:59:33.418Z,96627.44
2022-10-30T12:02:03.843Z,96627.41
2022-10-30T12:04:32.948Z,96619.44
2022-10-30T12:07:20.652Z,96623.91
2022-10-30T12:09:49.051Z,96620.50
2022-10-30T12:12:24.443Z,96616.06
2022-10-30T12:14:53.158Z,96611.19
2022-10-30T12:17:22.440Z,96609.75
2022-10-30T12:19:52.355Z,96608.59
2022-10-30T12:22:30.148Z,96609.31
2022-10-30T12:24:58.477Z,96614.69
2022-10-30T12:27:26.723Z,96606.78
2022-10-30T12:30:09.656Z,96610.44
2022-10-30T12:32:44.946Z,96604.09
2022-10-30T12:35:41.825Z,96602.09
2022-10-30T12:38:18.682Z,96597.94
2022-10-30T12:41:00.770Z,96603.91
2022-10-30T12:43:29.171Z,96595.91
2022-10-30T12:46:08.081Z,96598.38
2022-10-30T12:48:42.517Z,96598.25
2022-10-30T12:51:21.372Z,96598.16
2022-10-30T12:53:59.017Z,96595.03
2022-10-30T12:56:31.159Z,96597.47
2022-10-30T12:59:13.314Z,96584.66
2022-10-30T13:01:49.075Z,96590.84
2022-10-30T13:04:19.856Z,96585.31
2022-10-30T13:06:53.415Z,96589.22
2022-10-30T13:09:28.374Z,96588.13
2022-10-30T13:12:03.141Z,96587.34
2022-10-30T13:14:36.090Z,96588.41
2022-10-30T13:17:03.596Z,96591.38
2022-10-30T13:19:31.139Z,96584.03
2022-10-30T13:22:03.801Z,96581.84
2022-10-30T13:24:45.335Z,96577.06
2022-10-30T13:27:22.182Z,96581.47
2022-10-30T13:30:01.359Z,96576.09
2022-10-30T13:32:39.893Z,96578.84
2022-10-30T13:35:22.133Z,96572.00
2022-10-30T13:37:59.732Z,96572.81
2022-10-30T13:40:33.593Z,96572.28
2022-10-30T13:43:15.657Z,96575.00
2022-10-30T13:45:56.798Z,96572.25
2022-10-30T13:48:34.455Z,96574.28
2022-10-30T13:51:23.737Z,96567.53
2022-10-30T13:54:03.009Z,96573.09
2022-10-30T13:56:32.855Z,96564.16
2022-10-30T13:59:13.006Z,96568.34
2022-10-30T14:01:44.529Z,96572.00
2022-10-30T14:04:18.640Z,96574.97
2022-10-30T14:06:55.575Z,96573.00
2022-10-30T14:09:32.658Z,96570.28
2022-10-30T14:12:41.376Z,96561.34
2022-10-30T14:15:16.827Z,96561.88
2022-10-30T14:18:17.740Z,96570.25
2022-10-30T14:20:47.245Z,96569.06
2022-10-30T14:23:16.409Z,96563.13
2022-10-30T14:25:44.037Z,96574.41
2022-10-30T14:28:21.711Z,96564.13
2022-10-30T14:30:49.229Z,96566.69
2022-10-30T14:33:35.722Z,96568.03
2022-10-30T14:36:22.068Z,96567.97
2022-10-30T14:39:22.707Z,96569.00
2022-10-30T14:42:01.661Z,96572.81
2022-10-30T14:44:50.498Z,96566.41
2022-10-30T14:47:47.460Z,96579.88
2022-10-30T14:50:20.930Z,96581.34
2022-10-30T14:53:03.086Z,96579.47
2022-10-30T14:55:34.711Z,96571.13
2022-10-30T14:58:20.225Z,96576.63
2022-10-30T15:00:49.353Z,96564.84
2022-10-30T15:03:26.568Z,96569.13
2022-10-30T15:05:58.565Z,96576.56
2022-10-30T15:08:47.007Z,96574.41
2022-10-30T15:11:32.109Z,96572.44
2022-10-30T15:14:03.343Z,96574.72
2022-10-30T15:16:37.924Z,96574.84
2022-10-30T15:19:07.770Z,96576.44
2022-10-30T15:21:49.466Z,96583.16
2022-10-30T15:24:18.919Z,96582.38
2022-10-30T15:26:50.413Z,96580.53
2022-10-30T15:29:20.421Z,96585.25
2022-10-30T15:32:00.320Z,96580.59
2022-10-30T15:34:28.957Z,96582.66
2022-10-30T15:36:56.937Z,96584.69
2022-10-30T15:39:24.882Z,96586.13
2022-10-30T15:41:55.431Z,96580.81
2022-10-30T15:44:25.575Z,96589.25
2022-10-30T15:46:54.903Z,96590.63
2022-10-30T15:49:30.727Z,96600.25
2022-10-30T15:51:58.467Z,96596.56
2022-10-30T15:54:28.378Z,96598.09
2022-10-30T15:59:52.640Z,96595.66
2022-10-30T16:02:22.507Z,96597.97
2022-10-30T16:04:51.707Z,96605.03
2022-10-30T16:07:22.262Z,96599.44
2022-10-30T16:09:54.534Z,96599.00
2022-10-30T16:12:24.275Z,96601.66
2022-10-30T16:14:51.894Z,96604.56
2022-10-30T16:17:20.312Z,96603.28
2022-10-30T16:19:51.474Z,96605.94
2022-10-30T16:22:25.705Z,96599.94
2022-10-30T16:24:54.327Z,96603.13
2022-10-30T16:27:24.193Z,96605.72
2022-10-30T16:29:53.906Z,96604.53
2022-10-30T16:32:24.886Z,96602.44
2022-10-30T16:34:57.229Z,96597.16
2022-10-30T16:37:29.142Z,96597.19
2022-10-30T16:39:57.381Z,96602.75
2022-10-30T16:42:26.970Z,96605.66
2022-10-30T16:45:26.737Z,96603.72
2022-10-30T16:47:58.271Z,96610.22
2022-10-30T16:50:33.983Z,96609.19
2022-10-30T16:53:08.032Z,96624.56
2022-10-30T16:55:38.508Z,96620.44
2022-10-30T16:58:06.147Z,96621.66
2022-10-30T17:00:36.679Z,96618.28
2022-10-30T17:03:09.339Z,96617.84
2022-10-30T17:05:37.841Z,96621.97
2022-10-30T17:08:26.346Z,96624.09
2022-10-30T17:10:58.876Z,96624.75
2022-10-30T17:13:37.538Z,96617.41
2022-10-30T17:16:25.308Z,96630.38
2022-10-30T17:18:54.554Z,96628.78
2022-10-30T17:21:24.234Z,96630.19
2022-10-30T17:23:55.557Z,96626.09
2022-10-30T17:26:23.233Z,96629.94
2022-10-30T17:28:50.903Z,96638.88
2022-10-30T17:31:24.533Z,96644.56
2022-10-30T17:34:14.832Z,96643.50
2022-10-30T17:36:43.481Z,96648.25
2022-10-30T17:39:12.581Z,96645.75
2022-10-30T17:41:40.979Z,96642.84
2022-10-30T17:44:16.086Z,96659.13
2022-10-30T17:46:43.975Z,96657.22
2022-10-30T17:49:24.481Z,96657.69
2022-10-30T17:51:51.996Z,96654.94
2022-10-30T17:54:20.871Z,96659.44
2022-10-30T17:56:48.417Z,96657.97
2022-10-30T17:59:15.946Z,96654.09
2022-10-30T18:01:43.714Z,96655.91
2022-10-30T18:04:20.511Z,96658.41
2022-10-30T18:06:48.610Z,96657.97
2022-10-30T18:09:16.273Z,96657.88
2022-10-30T18:11:45.127Z,96654.38
2022-10-30T18:14:13.155Z,96655.66
2022-10-30T18:16:40.711Z,96658.25
2022-10-30T18:19:11.522Z,96653.47
2022-10-30T18:21:39.411Z,96649.75
2022-10-30T18:24:12.274Z,96640.91
2022-10-30T18:26:40.922Z,96650.41
2022-10-30T18:29:10.308Z,96652.59
2022-10-30T18:31:38.941Z,96653.91
2022-10-30T18:34:14.849Z,96661.03
2022-10-30T18:36:42.418Z,96651.59
2022-10-30T18:39:10.850Z,96663.22
2022-10-30T18:41:41.790Z,96662.88
2022-10-30T18:44:15.299Z,96671.38
2022-10-30T18:46:42.843Z,96670.22
2022-10-30T18:49:10.392Z,96664.31
2022-10-30T18:51:38.192Z,96661.94
2022-10-30T18:54:12.758Z,96669.13
2022-10-30T18:56:40.268Z,96667.25
2022-10-30T18:59:07.849Z,96660.97
2022-10-30T19:01:37.356Z,96668.09
2022-10-30T19:04:09.928Z,96657.94
2022-10-30T19:06:38.695Z,96656.22
2022-10-30T19:09:06.450Z,96653.56
2022-10-30T19:11:36.261Z,96654.59
2022-10-30T19:14:06.567Z,96658.44
2022-10-30T19:16:34.069Z,96652.66
2022-10-30T19:19:02.943Z,96652.28
2022-10-30T19:21:33.378Z,96657.25
2022-10-30T19:24:02.375Z,96656.13
2022-10-30T19:26:29.962Z,96652.28
2022-10-30T19:28:57.528Z,96653.53
2022-10-30T19:31:25.030Z,96656.44
2022-10-30T19:33:57.531Z,96651.63
2022-10-30T19:36:31.797Z,96654.09
2022-10-30T19:39:04.222Z,96656.19
2022-10-30T19:41:34.895Z,96656.13
2022-10-30T19:44:02.381Z,96655.47
2022-10-30T19:46:29.888Z,96647.88
2022-10-30T19:48:58.984Z,96655.94
2022-10-30T19:51:27.562Z,96655.47
2022-10-30T19:53:56.805Z,96656.97
2022-10-30T19:56:24.811Z,96664.66
2022-10-30T19:58:52.348Z,96656.66
2022-10-30T20:01:19.948Z,96659.69
2022-10-30T20:03:47.510Z,96658.22
2022-10-30T20:06:15.628Z,96661.03
2022-10-30T20:08:43.190Z,96657.38
2022-10-30T20:11:12.050Z,96652.75
2022-10-30T20:13:39.615Z,96666.47
2022-10-30T20:16:07.885Z,96667.38
2022-10-30T20:18:36.752Z,96666.91
2022-10-30T20:21:08.119Z,96665.09
2022-10-30T20:23:35.687Z,96672.06
2022-10-30T20:26:05.342Z,96673.94
2022-10-30T20:28:37.113Z,96671.25
2022-10-30T20:31:05.466Z,96673.09
2022-10-30T20:33:33.045Z,96675.94
2022-10-30T20:36:00.602Z,96681.47
2022-10-30T20:38:30.398Z,96676.59
2022-10-30T20:40:59.625Z,96684.28
2022-10-30T20:43:30.695Z,96679.94
2022-10-30T20:46:00.502Z,96686.78
2022-10-30T20:48:29.149Z,96679.09
2022-10-30T20:50:58.914Z,96677.78
2022-10-30T20:53:26.488Z,96679.66
2022-10-30T20:55:54.227Z,96682.97
2022-10-30T20:58:21.849Z,96678.78
2022-10-30T21:00:49.927Z,96676.59
2022-10-30T21:03:18.835Z,96677.72
2022-10-30T21:05:46.728Z,96673.03
2022-10-30T21:08:14.712Z,96671.16
2022-10-30T21:10:42.586Z,96675.00
2022-10-30T21:13:11.409Z,96674.38
2022-10-30T21:15:39.553Z,96679.72
2022-10-30T21:18:07.347Z,96672.69
2022-10-30T21:20:36.854Z,96679.72
2022-10-30T21:23:04.500Z,96677.88
2022-10-30T21:25:32.771Z,96677.72
2022-10-30T21:28:00.534Z,96681.38
2022-10-30T21:30:28.190Z,96671.16
2022-10-30T21:32:55.735Z,96675.00
2022-10-30T21:35:23.281Z,96682.19
2022-10-30T21:37:52.177Z,96679.97
2022-10-30T21:40:19.718Z,96667.44
2022-10-30T21:42:48.524Z,96677.31
2022-10-30T21:45:16.061Z,96679.00
2022-10-30T21:47:43.596Z,96679.34
2022-10-30T21:50:12.555Z,96677.03
2022-10-30T21:52:40.388Z,96680.72
2022-10-30T21:55:10.033Z,96681.25
2022-10-30T21:57:37.556Z,96680.09
2022-10-30T22:00:07.336Z,96680.09
2022-10-30T22:02:35.159Z,96675.47
2022-10-30T22:05:02.762Z,96671.44
2022-10-30T22:07:30.333Z,96677.47
2022-10-30T22:09:57.869Z,96673.28
2022-10-30T22:12:26.760Z,96663.78
2022-10-30T22:14:54.273Z,96663.13
2022-10-30T22:17:21.915Z,96667.81
2022-10-30T22:19:49.415Z,96661.31
2022-10-30T22:22:16.910Z,96666.50
2022-10-30T22:24:44.440Z,96666.50
2022-10-30T22:27:11.955Z,96667.84
2022-10-30T22:29:40.854Z,96666.84
2022-10-30T22:32:08.393Z,96663.69
2022-10-30T22:34:35.910Z,96661.84
2022-10-30T22:37:03.429Z,96658.69
2022-10-30T22:39:30.998Z,96658.53
2022-10-30T22:41:58.502Z,96663.53
2022-10-30T22:44:26.023Z,96664.00
2022-10-30T22:46:54.883Z,96658.53
2022-10-30T22:49:22.394Z,96655.19
2022-10-30T22:51:49.888Z,96665.53
2022-10-30T22:54:17.400Z,96657.69
2022-10-30T22:56:44.923Z,96671.19
2022-10-30T22:59:14.219Z,96660.19
2022-10-30T23:01:42.238Z,96671.19
2022-10-30T23:04:13.987Z,96671.88
2022-10-30T23:06:41.775Z,96669.88
2022-10-30T23:09:15.471Z,96664.19
2022-10-30T23:11:43.008Z,96670.81
2022-10-30T23:14:10.526Z,96667.00
2022-10-30T23:16:38.166Z,96671.16
2022-10-30T23:19:05.705Z,96663.19
2022-10-30T23:21:35.027Z,96670.16
2022-10-30T23:24:04.126Z,96664.50
2022-10-30T23:26:33.342Z,96656.19
2022-10-30T23:29:01.635Z,96665.66
2022-10-30T23:31:32.308Z,96667.50
2022-10-30T23:34:01.707Z,96669.81
2022-10-30T23:36:29.746Z,96659.50
2022-10-30T23:39:00.577Z,96668.47
2022-10-30T23:41:30.255Z,96670.81
2022-10-30T23:43:59.770Z,96668.16
2022-10-30T23:46:28.354Z,96668.81
2022-10-30T23:48:56.472Z,96674.47
2022-10-30T23:51:24.919Z,96669.81
2022-10-30T23:53:52.725Z,96669.63
2022-10-30T23:56:21.675Z,96667.13
2022-10-30T23:58:50.981Z,96668.47
